Muldoon, Texas
Current Conditions -  °F | °C
As of 12:55 PM on Friday 24 Oct 2014 (Local Time) from K3T5 Reporting Station
Clear Clear  
Wind Chill: 79°   Ceiling: Unl
Heat Index: 80°   Visibility: 10mi
Dew Point: 59°   Wind: 0mph
Humidity: 51%   Direction: NA
Pressure: 30.15"   Gusts: NA
Location:  29.82°N, 97.07°W
Report Text: K3T5 241755Z AUTO 00000KT 10SM CLR 26/15 A3015 RMK AO2 T02610151 10261 20135
Loading
Personal Weather Stations






























Interactive Weather Map
Tropical Storm Tracking
New forecast layout! Learn more

10-Day Weather Forecast

Advertisements
Track Severe Weather on mobile